Time;durP1;ratioP1;P1;durP2;ratioP2;P2;SDS_P1;SDS_P2;PMS_P1;PMS_P2;Temp;Humidity;BMP_temperature;BMP_pressure;BME280_temperature;BME280_humidity;BME280_pressure;Samples;Min_cycle;Max_cycle;Signal;HPM_P1;HPM_P2
2022/08/28 00:00:12;;;;;;;10.63;8.83;;;;;;;24.75;63.79;100171.66;5073195;28;20175;-65
2022/08/28 00:02:37;;;;;;;10.93;8.93;;;;;;;24.74;63.65;100167.09;5064620;28;20556;-65
2022/08/28 00:05:04;;;;;;;11.20;9.10;;;;;;;24.73;63.71;100159.69;5054509;28;20424;-65
2022/08/28 00:07:29;;;;;;;10.33;8.40;;;;;;;24.71;64.00;100164.25;5073042;28;20232;-65
2022/08/28 00:09:55;;;;;;;16.53;8.97;;;;;;;24.69;64.22;100158.88;5073112;28;20413;-66
2022/08/28 00:12:20;;;;;;;13.40;8.73;;;;;;;24.66;64.06;100153.16;5072837;28;20241;-65
2022/08/28 00:14:46;;;;;;;13.70;8.63;;;;;;;24.66;63.75;100158.94;5071162;28;20568;-66
2022/08/28 00:17:11;;;;;;;11.37;8.70;;;;;;;24.65;63.44;100151.53;5072990;28;20599;-66
2022/08/28 00:19:36;;;;;;;11.90;8.40;;;;;;;24.64;63.56;100147.81;5072225;28;20208;-65
2022/08/28 00:22:03;;;;;;;11.03;9.00;;;;;;;24.63;63.40;100148.25;5072332;28;20221;-65
2022/08/28 00:24:28;;;;;;;10.27;8.30;;;;;;;24.62;63.57;100152.34;5070938;28;20171;-65
2022/08/28 00:29:37;;;;;;;11.63;8.50;;;;;;;24.59;62.98;100148.25;5070837;28;20700;-65
2022/08/28 00:32:04;;;;;;;10.90;7.90;;;;;;;24.58;63.45;100154.44;5066899;28;20425;-65
2022/08/28 00:34:31;;;;;;;10.17;8.40;;;;;;;24.59;63.28;100156.13;5051571;28;20206;-65
2022/08/28 00:36:57;;;;;;;12.77;8.93;;;;;;;24.59;63.18;100154.03;5067237;28;20524;-65
2022/08/28 00:39:22;;;;;;;17.20;8.57;;;;;;;24.60;62.75;100157.75;5071483;28;20910;-65
2022/08/28 00:41:49;;;;;;;12.63;8.87;;;;;;;24.59;63.28;100165.56;5072171;28;20229;-66
2022/08/28 00:44:19;;;;;;;10.93;8.53;;;;;;;24.54;63.28;100162.31;5072182;28;20177;-65
2022/08/28 00:46:47;;;;;;;10.93;7.80;;;;;;;24.54;63.21;100154.47;5072194;28;20414;-65
2022/08/28 00:49:14;;;;;;;10.80;7.90;;;;;;;24.56;63.08;100154.03;5072223;28;20437;-65
2022/08/28 00:54:24;;;;;;;10.40;7.70;;;;;;;24.52;63.19;100159.00;5072228;28;20518;-65
2022/08/28 00:56:52;;;;;;;10.27;7.80;;;;;;;24.51;63.10;100146.66;5070601;28;20763;-65
2022/08/28 00:59:18;;;;;;;11.17;7.60;;;;;;;24.50;63.15;100147.91;5054251;28;20658;-65
2022/08/28 01:01:44;;;;;;;12.90;8.07;;;;;;;24.43;63.10;100155.81;5067551;28;20453;-65
2022/08/28 01:04:15;;;;;;;10.67;7.93;;;;;;;24.45;63.14;100153.31;5050992;28;20424;-65
2022/08/28 01:06:41;;;;;;;8.90;7.43;;;;;;;24.48;63.27;100149.59;5051911;28;20176;-65
2022/08/28 01:09:07;;;;;;;9.03;6.80;;;;;;;24.50;62.88;100153.69;5051787;28;20827;-65
2022/08/28 01:11:32;;;;;;;10.20;6.60;;;;;;;24.52;62.88;100159.00;5051881;28;20466;-65
2022/08/28 01:13:58;;;;;;;11.77;7.10;;;;;;;24.53;62.41;100164.38;5050497;28;20548;-64
2022/08/28 01:16:23;;;;;;;10.43;7.20;;;;;;;24.54;62.61;100166.00;5050380;28;20183;-66
2022/08/28 01:18:49;;;;;;;9.47;7.23;;;;;;;24.55;62.67;100158.19;5050607;28;20168;-65
2022/08/28 01:21:25;;;;;;;10.13;6.17;;;;;;;24.55;62.52;100159.00;5033798;28;20203;-65
2022/08/28 01:24:00;;;;;;;12.03;7.40;;;;;;;24.56;62.12;100157.75;5050771;28;20270;-65
2022/08/28 01:26:27;;;;;;;11.20;6.33;;;;;;;24.56;62.62;100157.75;5051705;28;20417;-65
2022/08/28 01:28:52;;;;;;;9.30;6.47;;;;;;;24.56;62.38;100159.81;5050409;28;20410;-65
2022/08/28 01:31:18;;;;;;;7.70;6.13;;;;;;;24.57;62.47;100164.34;5062713;28;20425;-66
2022/08/28 01:33:44;;;;;;;12.17;6.40;;;;;;;24.58;62.25;100163.13;5071338;28;20191;-65
2022/08/28 01:36:11;;;;;;;10.37;6.97;;;;;;;24.58;62.47;100157.34;5071395;28;20167;-65
2022/08/28 01:38:37;;;;;;;8.23;6.93;;;;;;;24.58;62.32;100155.28;5071444;28;20410;-65
2022/08/28 01:41:02;;;;;;;8.63;6.97;;;;;;;24.58;62.60;100158.16;5069982;28;20504;-66
2022/08/28 01:43:30;;;;;;;7.03;5.97;;;;;;;24.57;62.28;100153.63;5071481;28;20911;-66
2022/08/28 01:46:00;;;;;;;8.60;6.60;;;;;;;24.57;62.51;100161.44;5069769;28;20194;-65
2022/08/28 01:48:27;;;;;;;8.17;6.20;;;;;;;24.53;62.61;100166.44;5071218;28;20436;-65
2022/08/28 01:50:52;;;;;;;8.80;6.80;;;;;;;24.50;62.51;100162.34;5069962;28;20512;-65
2022/08/28 01:53:19;;;;;;;8.40;6.53;;;;;;;24.49;62.35;100165.66;5071219;28;20426;-65
2022/08/28 01:55:45;;;;;;;9.00;6.47;;;;;;;24.48;62.54;100161.94;5069671;28;20534;-66
2022/08/28 01:58:10;;;;;;;14.50;6.50;;;;;;;24.48;62.22;100159.03;5069958;28;20477;-65
2022/08/28 02:00:36;;;;;;;11.90;6.20;;;;;;;24.45;62.35;100162.81;5070713;28;20171;-65
2022/08/28 02:03:01;;;;;;;9.93;7.40;;;;;;;24.45;62.12;100159.09;5060466;28;20186;-66
2022/08/28 02:05:29;;;;;;;9.13;6.20;;;;;;;24.43;62.23;100162.38;5050788;28;20172;-65
2022/08/28 02:07:56;;;;;;;11.00;6.63;;;;;;;24.45;62.24;100168.56;5051178;28;20182;-66
2022/08/28 02:10:24;;;;;;;10.87;6.20;;;;;;;24.45;62.35;100170.63;5051058;28;20410;-65
2022/08/28 02:12:54;;;;;;;7.73;5.87;;;;;;;24.46;62.29;100173.09;5050874;28;20516;-66
2022/08/28 02:15:19;;;;;;;10.80;6.77;;;;;;;24.49;62.20;100172.22;5050495;28;20820;-65
2022/08/28 02:17:45;;;;;;;13.93;6.20;;;;;;;24.49;62.34;100177.19;5063378;28;20421;-66
2022/08/28 02:20:10;;;;;;;7.43;6.00;;;;;;;24.50;62.58;100173.06;5070434;28;20175;-65
2022/08/28 02:22:36;;;;;;;7.50;6.30;;;;;;;24.50;62.01;100167.28;5070529;28;20174;-65
2022/08/28 02:25:02;;;;;;;6.30;5.67;;;;;;;24.51;61.79;100166.03;5069912;28;20171;-66
2022/08/28 02:27:28;;;;;;;16.10;6.90;;;;;;;24.49;62.15;100166.47;5070228;28;20190;-66
2022/08/28 02:29:54;;;;;;;9.43;5.57;;;;;;;24.48;62.10;100164.81;5069641;28;20452;-65
2022/08/28 02:32:19;;;;;;;12.03;6.70;;;;;;;24.48;61.72;100164.81;5070123;28;20236;-66
2022/08/28 02:34:45;;;;;;;8.90;6.60;;;;;;;24.46;62.06;100161.56;5068474;28;20584;-66
2022/08/28 02:37:12;;;;;;;10.20;5.90;;;;;;;24.48;62.00;100164.81;5069862;28;20186;-65
2022/08/28 02:39:38;;;;;;;9.67;6.40;;;;;;;24.47;62.10;100160.31;5060950;28;20199;-65
2022/08/28 02:42:03;;;;;;;9.93;6.20;;;;;;;24.48;61.78;100167.72;5069408;28;20443;-65
2022/08/28 02:44:29;;;;;;;7.53;5.90;;;;;;;24.47;61.72;100154.53;5068902;28;20946;-66
2022/08/28 02:46:54;;;;;;;7.50;6.23;;;;;;;24.45;61.52;100150.44;5070620;28;20178;-65
2022/08/28 02:49:21;;;;;;;8.40;6.07;;;;;;;24.44;61.64;100152.47;5069368;28;20178;-66
2022/08/28 02:51:47;;;;;;;11.90;6.40;;;;;;;24.42;61.81;100151.25;5070594;28;20304;-66
2022/08/28 02:54:12;;;;;;;10.27;5.87;;;;;;;24.41;61.91;100153.34;5070326;28;20882;-66
2022/08/28 02:56:38;;;;;;;11.23;6.50;;;;;;;24.41;61.98;100149.63;5070566;28;20178;-66
2022/08/28 02:59:03;;;;;;;8.57;5.77;;;;;;;24.40;61.83;100154.59;5069144;28;20171;-67
2022/08/28 03:01:29;;;;;;;10.27;6.43;;;;;;;24.42;61.65;100154.97;5070518;28;20740;-66
2022/08/28 03:03:54;;;;;;;15.67;6.53;;;;;;;24.44;61.52;100160.34;5052496;28;20172;-66
2022/08/28 03:06:21;;;;;;;13.03;7.40;;;;;;;24.45;61.47;100159.09;5050549;28;20168;-66
2022/08/28 03:08:47;;;;;;;8.87;6.57;;;;;;;24.45;61.52;100159.09;5049259;28;20264;-66
2022/08/28 03:11:13;;;;;;;7.47;6.20;;;;;;;24.44;61.66;100158.25;5049951;28;20410;-66
2022/08/28 03:13:38;;;;;;;7.23;6.37;;;;;;;24.45;61.59;100159.09;5048813;28;20222;-65
2022/08/28 03:16:03;;;;;;;14.67;6.57;;;;;;;24.43;61.47;100159.50;5050407;28;20175;-66
2022/08/28 03:18:29;;;;;;;9.70;5.80;;;;;;;24.44;61.49;100166.09;5050263;28;20195;-66
2022/08/28 03:20:55;;;;;;;14.73;6.97;;;;;;;24.44;61.73;100164.03;5049065;28;20171;-66
2022/08/28 03:23:27;;;;;;;8.90;5.93;;;;;;;24.43;61.50;100161.59;5048909;28;20179;-65
2022/08/28 03:25:52;;;;;;;8.43;5.90;;;;;;;24.40;61.42;100154.59;5050371;28;20157;-66
2022/08/28 03:28:18;;;;;;;8.70;6.63;;;;;;;24.40;61.47;100157.47;5048739;28;20441;-66
2022/08/28 03:30:43;;;;;;;11.43;5.97;;;;;;;24.40;61.42;100163.25;5050049;28;20171;-66
2022/08/28 03:33:09;;;;;;;9.73;6.03;;;;;;;24.40;61.16;100154.59;5052081;28;20266;-65
2022/08/28 03:35:36;;;;;;;10.43;5.63;;;;;;;24.41;61.18;100162.00;5052602;28;20250;-65
2022/08/28 03:38:01;;;;;;;7.53;6.10;;;;;;;24.41;61.14;100158.28;5053950;28;20221;-66
2022/08/28 03:40:27;;;;;;;6.80;5.07;;;;;;;24.39;61.23;100155.00;5054306;28;20414;-65
2022/08/28 03:42:53;;;;;;;7.27;6.00;;;;;;;24.38;61.36;100165.72;5073281;28;20167;-66
2022/08/28 03:45:18;;;;;;;7.60;5.57;;;;;;;24.38;61.29;100159.16;5072397;28;20190;-65
2022/08/28 03:47:43;;;;;;;9.03;6.43;;;;;;;24.38;61.18;100154.19;5073535;28;20175;-66
2022/08/28 03:50:10;;;;;;;7.37;5.43;;;;;;;24.37;61.27;100155.44;5073505;28;20182;-65
2022/08/28 03:52:36;;;;;;;7.87;5.83;;;;;;;24.38;61.41;100159.16;5072158;28;20213;-66
2022/08/28 03:55:01;;;;;;;12.93;6.30;;;;;;;24.36;60.98;100156.69;5072277;28;20587;-66
2022/08/28 03:57:27;;;;;;;10.27;5.33;;;;;;;24.36;61.24;100153.81;5073310;28;20892;-65
2022/08/28 03:59:52;;;;;;;11.10;5.77;;;;;;;24.35;61.33;100157.94;5073078;28;20167;-65
2022/08/28 04:02:19;;;;;;;8.20;5.40;;;;;;;24.34;61.21;100159.16;5071673;28;20247;-65
2022/08/28 04:04:48;;;;;;;11.20;5.30;;;;;;;24.35;61.37;100157.09;5073385;28;20171;-65
2022/08/28 04:07:13;;;;;;;9.47;4.83;;;;;;;24.33;61.04;100159.59;5073177;28;20967;-66
2022/08/28 04:09:39;;;;;;;9.90;5.60;;;;;;;24.33;60.82;100160.41;5068151;28;20501;-66
2022/08/28 04:12:05;;;;;;;7.43;5.33;;;;;;;24.33;61.01;100160.41;5051543;28;20593;-65
2022/08/28 04:14:31;;;;;;;9.33;5.03;;;;;;;24.33;61.13;100168.25;5052015;28;20191;-66
2022/08/28 04:16:56;;;;;;;8.90;5.50;;;;;;;24.33;61.26;100168.25;5051641;28;20425;-65
2022/08/28 04:19:21;;;;;;;16.50;5.03;;;;;;;24.32;61.20;100176.09;5059032;28;20175;-66
2022/08/28 04:21:47;;;;;;;7.40;4.80;;;;;;;24.32;60.96;100172.38;5071675;28;20191;-66
2022/08/28 04:24:12;;;;;;;9.77;5.37;;;;;;;24.30;60.96;100167.03;5072967;28;20652;-66
2022/08/28 04:26:38;;;;;;;10.83;5.37;;;;;;;24.29;61.17;100171.16;5072256;28;20171;-65
2022/08/28 04:29:04;;;;;;;8.83;4.93;;;;;;;24.28;61.14;100163.75;5053716;28;20201;-65
2022/08/28 04:31:29;;;;;;;9.43;5.03;;;;;;;24.29;60.95;100164.56;5070462;28;20163;-65
2022/08/28 04:33:54;;;;;;;7.37;5.03;;;;;;;24.26;61.22;100166.25;5052380;28;20202;-65
2022/08/28 04:36:20;;;;;;;8.53;5.40;;;;;;;24.27;61.16;100172.81;5062150;28;20518;-65
2022/08/28 04:38:45;;;;;;;8.43;5.40;;;;;;;24.26;61.19;100169.13;5068826;28;20867;-65
2022/08/28 04:41:12;;;;;;;7.03;5.70;;;;;;;24.25;61.00;100167.50;5071786;28;20182;-65
2022/08/28 04:43:37;;;;;;;7.03;4.67;;;;;;;24.25;61.25;100167.50;5072316;28;20225;-65
2022/08/28 04:46:08;;;;;;;6.30;5.00;;;;;;;24.24;61.22;100165.81;5072590;28;20425;-65
2022/08/28 04:48:34;;;;;;;8.13;5.53;;;;;;;24.23;61.42;100172.84;5070767;28;20175;-65
2022/08/28 04:50:59;;;;;;;8.97;5.40;;;;;;;24.24;61.29;100177.38;5072554;28;20873;-66
2022/08/28 04:53:25;;;;;;;8.77;5.40;;;;;;;24.21;61.29;100174.50;5072188;28;20183;-65
2022/08/28 04:55:51;;;;;;;9.10;5.00;;;;;;;24.22;61.23;100179.88;5070890;28;20220;-65
2022/08/28 04:58:17;;;;;;;6.73;5.00;;;;;;;24.21;61.49;100172.47;5072123;28;20649;-66
2022/08/28 05:00:44;;;;;;;7.77;5.13;;;;;;;24.23;61.24;100175.72;5072253;28;20540;-65
2022/08/28 05:03:10;;;;;;;11.13;5.17;;;;;;;24.20;61.49;100173.72;5060440;28;20425;-65
2022/08/28 05:05:43;;;;;;;7.73;5.50;;;;;;;24.19;61.59;100179.91;5052198;28;20835;-65
2022/08/28 05:08:09;;;;;;;11.33;5.30;;;;;;;24.20;61.12;100179.47;5051954;28;20452;-65
2022/08/28 05:10:34;;;;;;;7.03;5.17;;;;;;;24.18;61.75;100173.28;5050694;28;20422;-65
2022/08/28 05:13:00;;;;;;;7.50;4.50;;;;;;;24.09;61.96;100178.72;5050567;28;20222;-66
2022/08/28 05:15:25;;;;;;;10.03;4.97;;;;;;;24.09;62.22;100181.59;5051811;28;20589;-65
2022/08/28 05:17:51;;;;;;;7.17;4.43;;;;;;;24.11;62.01;100182.00;5051861;28;20255;-65
2022/08/28 05:20:16;;;;;;;7.07;4.87;;;;;;;24.13;62.06;100188.16;5052023;28;20168;-65
2022/08/28 05:22:42;;;;;;;9.13;5.37;;;;;;;24.12;61.92;100192.31;5051793;28;20255;-65
2022/08/28 05:25:07;;;;;;;7.70;5.53;;;;;;;24.15;62.01;100188.59;5051679;28;20172;-65
2022/08/28 05:27:34;;;;;;;8.33;4.93;;;;;;;24.16;61.91;100196.00;5051613;28;20180;-65
2022/08/28 05:29:59;;;;;;;8.33;4.90;;;;;;;24.18;61.83;100196.38;5051817;28;20172;-65
2022/08/28 05:32:25;;;;;;;10.00;6.47;;;;;;;24.16;62.18;100207.53;5049536;28;20445;-65
2022/08/28 05:34:50;;;;;;;8.93;5.67;;;;;;;24.17;62.05;100206.28;5050493;28;20203;-65
2022/08/28 05:37:15;;;;;;;10.80;5.57;;;;;;;24.17;62.07;100208.31;5050639;28;20249;-65
2022/08/28 05:39:41;;;;;;;8.60;5.67;;;;;;;24.12;62.27;100208.78;5051000;28;20179;-65
2022/08/28 05:42:06;;;;;;;11.90;5.10;;;;;;;24.11;62.26;100205.09;5058387;28;20167;-66
2022/08/28 05:44:32;;;;;;;10.73;5.90;;;;;;;24.13;62.29;100210.44;5070025;28;20171;-66
2022/08/28 05:46:57;;;;;;;9.27;4.90;;;;;;;24.10;62.79;100206.34;5071214;28;20174;-65
2022/08/28 05:49:23;;;;;;;8.90;5.87;;;;;;;24.14;62.32;100207.09;5069992;28;20171;-65
2022/08/28 05:51:48;;;;;;;11.93;5.70;;;;;;;24.16;62.49;100209.56;5052959;28;20677;-65
2022/08/28 05:54:14;;;;;;;9.80;5.40;;;;;;;24.17;62.35;100205.44;5069272;28;20203;-65
2022/08/28 05:56:40;;;;;;;9.20;5.30;;;;;;;24.17;62.56;100193.91;5069340;28;20181;-65
2022/08/28 05:59:06;;;;;;;7.77;5.27;;;;;;;24.16;62.44;100210.41;5069505;28;20425;-65
2022/08/28 06:01:33;;;;;;;7.20;5.67;;;;;;;23.96;63.36;100217.94;5071044;28;20421;-65
2022/08/28 06:04:04;;;;;;;10.13;6.07;;;;;;;24.05;63.10;100212.53;5051933;28;20722;-65
2022/08/28 06:06:32;;;;;;;8.80;5.10;;;;;;;24.02;63.20;100212.53;5044768;28;20425;-65
2022/08/28 06:09:00;;;;;;;6.03;5.00;;;;;;;24.09;62.90;100224.84;5068418;28;20417;-65
2022/08/28 06:11:27;;;;;;;6.93;5.10;;;;;;;24.12;62.97;100214.53;5069272;28;20817;-65
2022/08/28 06:13:52;;;;;;;9.93;6.00;;;;;;;23.97;63.51;100213.81;5069717;28;20452;-66
2022/08/28 06:16:19;;;;;;;8.53;5.20;;;;;;;24.09;63.15;100213.31;5070204;28;20465;-65
2022/08/28 06:18:45;;;;;;;9.13;6.07;;;;;;;24.02;63.66;100221.19;5068999;28;20482;-65
2022/08/28 06:21:11;;;;;;;8.03;5.30;;;;;;;23.98;63.70;100226.19;5070020;28;20187;-65
2022/08/28 06:23:36;;;;;;;10.83;5.60;;;;;;;23.89;63.98;100229.50;5067763;28;20421;-65
2022/08/28 06:26:04;;;;;;;14.57;5.17;;;;;;;23.90;63.93;100233.22;5070958;28;20175;-65
2022/08/28 06:28:29;;;;;;;11.27;6.00;;;;;;;23.85;63.91;100239.38;5069499;28;20795;-65
2022/08/28 06:30:55;;;;;;;6.33;5.20;;;;;;;23.90;64.02;100230.31;5068993;28;20494;-65
2022/08/28 06:33:20;;;;;;;11.43;5.33;;;;;;;23.85;63.96;100246.00;5068975;28;20638;-65
2022/08/28 06:35:48;;;;;;;7.47;5.40;;;;;;;23.94;63.67;100243.47;5069811;28;20250;-65
2022/08/28 06:38:14;;;;;;;8.23;4.20;;;;;;;23.76;63.91;100245.59;5068129;28;20817;-65
2022/08/28 06:40:51;;;;;;;9.40;5.43;;;;;;;23.95;63.56;100253.81;5069727;28;20503;-65
2022/08/28 06:43:17;;;;;;;9.27;4.67;;;;;;;23.81;64.06;100241.47;5069475;28;21181;-66
2022/08/28 06:45:44;;;;;;;9.77;4.97;;;;;;;23.84;63.99;100238.56;5070458;28;20417;-66
2022/08/28 06:48:10;;;;;;;8.13;4.40;;;;;;;23.62;64.83;100239.88;5069196;28;20417;-65
2022/08/28 06:50:40;;;;;;;8.33;5.00;;;;;;;23.66;64.74;100242.75;5070437;28;20552;-65
2022/08/28 06:53:07;;;;;;;11.17;4.87;;;;;;;23.68;64.50;100246.84;5070679;28;20512;-65
2022/08/28 06:55:33;;;;;;;9.93;4.37;;;;;;;23.75;64.16;100246.84;5068247;28;20460;-65
2022/08/28 06:57:58;;;;;;;9.03;5.10;;;;;;;23.77;64.05;100247.25;5070303;28;20429;-65
2022/08/28 07:00:24;;;;;;;9.60;4.83;;;;;;;23.59;64.70;100251.44;5070208;28;20179;-65
2022/08/28 07:02:49;;;;;;;8.40;5.00;;;;;;;23.48;65.02;100253.53;5065856;28;20183;-66
2022/08/28 07:05:15;;;;;;;8.80;4.93;;;;;;;23.68;64.47;100257.59;5050733;28;20195;-65
2022/08/28 07:07:40;;;;;;;9.60;5.67;;;;;;;23.57;64.82;100257.59;5052125;28;20167;-65
2022/08/28 07:10:07;;;;;;;12.73;4.90;;;;;;;23.80;64.20;100260.00;5054256;28;20180;-65
2022/08/28 07:12:32;;;;;;;9.33;4.93;;;;;;;23.71;64.40;100268.25;5054164;28;20960;-65
2022/08/28 07:14:58;;;;;;;9.70;4.60;;;;;;;23.73;64.54;100274.47;5053931;28;20476;-65
2022/08/28 07:17:23;;;;;;;8.73;5.03;;;;;;;23.68;64.58;100274.88;5054305;28;20187;-65
2022/08/28 07:19:48;;;;;;;10.30;4.97;;;;;;;23.59;65.17;100277.38;5054033;28;20191;-65
2022/08/28 07:22:14;;;;;;;18.50;6.10;;;;;;;23.63;64.94;100284.75;5054283;28;20172;-65
2022/08/28 07:24:39;;;;;;;7.47;5.70;;;;;;;23.60;64.95;100274.09;5054176;28;20187;-65
2022/08/28 07:27:05;;;;;;;7.43;5.37;;;;;;;23.69;64.73;100282.28;5054020;28;20624;-66
2022/08/28 07:29:30;;;;;;;10.70;4.90;;;;;;;23.69;64.55;100277.31;5052575;28;20666;-65
2022/08/28 07:31:57;;;;;;;7.87;5.50;;;;;;;23.64;64.75;100286.41;5054325;28;20176;-65
2022/08/28 07:34:23;;;;;;;11.50;5.77;;;;;;;23.55;65.05;100280.28;5073811;28;20195;-65
2022/08/28 07:36:51;;;;;;;7.07;4.97;;;;;;;23.57;65.10;100286.44;5073932;28;20431;-65
2022/08/28 07:39:16;;;;;;;11.13;5.77;;;;;;;23.62;65.03;100286.00;5073812;28;20262;-65
2022/08/28 07:41:45;;;;;;;9.03;5.33;;;;;;;23.67;64.74;100284.75;5073681;28;20928;-65
2022/08/28 07:46:57;;;;;;;9.07;4.90;;;;;;;23.54;65.22;100289.31;5074032;28;20860;-65
2022/08/28 07:49:22;;;;;;;8.90;5.53;;;;;;;23.65;65.07;100288.06;5071421;28;20432;-65
2022/08/28 07:51:48;;;;;;;13.43;6.70;;;;;;;23.55;66.40;100297.56;5072695;28;20773;-65
2022/08/28 07:54:14;;;;;;;7.90;5.27;;;;;;;23.64;65.04;100292.16;5072105;28;21034;-65
2022/08/28 07:56:39;;;;;;;7.33;5.10;;;;;;;23.74;64.83;100302.84;5072491;28;20198;-65
2022/08/28 07:59:06;;;;;;;11.23;5.80;;;;;;;23.65;65.29;100302.47;5072226;28;20416;-65
2022/08/28 08:01:35;;;;;;;13.77;7.30;;;;;;;23.60;65.05;100302.91;5072420;28;20172;-64
2022/08/28 08:04:01;;;;;;;7.97;5.47;;;;;;;23.57;65.28;100303.72;5036066;28;20426;-65
2022/08/28 08:06:27;;;;;;;8.47;5.53;;;;;;;23.55;65.05;100311.13;5053343;28;20565;-65
2022/08/28 08:08:53;;;;;;;9.77;5.80;;;;;;;23.59;65.46;100303.31;5055442;28;20179;-65
2022/08/28 08:11:19;;;;;;;9.50;5.53;;;;;;;23.70;64.93;100310.72;5073110;28;20938;-65
2022/08/28 08:13:45;;;;;;;9.83;5.93;;;;;;;23.75;64.79;100298.75;5073074;28;20574;-65
2022/08/28 08:16:13;;;;;;;10.20;5.73;;;;;;;23.81;64.63;100308.59;5072438;28;20449;-65
2022/08/28 08:18:39;;;;;;;9.13;5.60;;;;;;;23.75;65.17;100315.22;5068145;28;20521;-65
2022/08/28 08:21:05;;;;;;;15.13;5.57;;;;;;;23.81;65.10;100313.53;5072594;28;20409;-65
2022/08/28 08:23:33;;;;;;;10.20;5.80;;;;;;;23.86;64.80;100313.94;5069004;28;20182;-65
2022/08/28 08:26:00;;;;;;;11.43;5.80;;;;;;;23.78;65.21;100320.16;5072110;28;20424;-65
2022/08/28 08:28:26;;;;;;;11.33;7.30;;;;;;;23.68;65.82;100326.78;5072257;28;20424;-65
2022/08/28 08:31:09;;;;;;;7.27;4.77;;;;;;;23.74;65.69;100339.53;5072224;28;20467;-66
2022/08/28 08:33:34;;;;;;;9.90;5.77;;;;;;;23.80;65.30;100334.97;5057417;28;20537;-65
2022/08/28 08:36:00;;;;;;;8.90;5.93;;;;;;;23.86;65.11;100339.06;5063139;28;20500;-65
2022/08/28 08:38:28;;;;;;;8.40;5.70;;;;;;;23.66;65.83;100337.88;5072778;28;20228;-65
2022/08/28 08:40:54;;;;;;;9.80;5.90;;;;;;;23.70;65.58;100339.53;5071539;28;20171;-65
2022/08/28 08:43:20;;;;;;;9.00;6.00;;;;;;;23.82;65.07;100344.84;5072771;28;20415;-65
2022/08/28 08:45:46;;;;;;;9.80;4.90;;;;;;;23.91;64.98;100342.38;5070824;28;20452;-65
2022/08/28 08:48:33;;;;;;;10.07;6.50;;;;;;;23.72;65.53;100345.69;5071081;28;20421;-66
2022/08/28 08:51:02;;;;;;;11.33;6.30;;;;;;;23.63;65.82;100347.38;5070910;28;20186;-65
2022/08/28 08:53:43;;;;;;;6.83;5.57;;;;;;;23.74;65.64;100346.09;5071022;28;20437;-65
2022/08/28 08:56:12;;;;;;;11.40;6.00;;;;;;;23.87;65.14;100347.31;5070856;28;20421;-65
2022/08/28 08:58:43;;;;;;;11.87;6.47;;;;;;;23.87;65.25;100347.31;5071066;28;20474;-65
2022/08/28 09:01:26;;;;;;;8.87;5.30;;;;;;;23.97;64.90;100345.66;5071003;28;20445;-65
2022/08/28 09:04:33;;;;;;;8.97;6.70;;;;;;;23.92;65.23;100349.78;5054345;28;20414;-65
2022/08/28 09:07:03;;;;;;;14.43;6.17;;;;;;;23.92;65.25;100349.78;5061193;28;20451;-65
2022/08/28 09:09:31;;;;;;;9.93;5.63;;;;;;;23.94;65.14;100353.06;5071329;28;20437;-65
2022/08/28 09:12:00;;;;;;;9.20;6.43;;;;;;;23.98;65.02;100348.13;5072040;28;20544;-65
2022/08/28 09:14:40;;;;;;;10.43;6.53;;;;;;;23.92;65.52;100346.06;5071862;28;20457;-65
2022/08/28 09:17:06;;;;;;;11.97;7.47;;;;;;;23.93;65.22;100347.75;5072110;28;20420;-65
2022/08/28 09:19:35;;;;;;;14.00;8.03;;;;;;;23.92;65.59;100354.72;5070501;28;20405;-65
2022/08/28 09:22:00;;;;;;;10.73;6.43;;;;;;;24.03;64.97;100344.81;5070590;28;20175;-65
2022/08/28 09:24:28;;;;;;;10.60;6.70;;;;;;;23.93;65.66;100345.66;5071399;28;20416;-64
2022/08/28 09:27:02;;;;;;;12.50;7.23;;;;;;;23.92;65.54;100354.72;5071561;28;20248;-65
2022/08/28 09:29:35;;;;;;;13.47;7.00;;;;;;;23.98;65.38;100353.09;5071184;28;20898;-64
2022/08/28 09:32:29;;;;;;;13.77;8.00;;;;;;;24.03;65.37;100347.69;5067655;28;21023;-65
2022/08/28 09:34:58;;;;;;;10.93;7.43;;;;;;;24.07;65.17;100348.50;5050957;28;20535;-65
2022/08/28 09:37:24;;;;;;;16.60;7.30;;;;;;;24.13;64.98;100351.81;5057646;28;20413;-65
2022/08/28 09:39:51;;;;;;;10.37;6.87;;;;;;;24.17;64.93;100350.53;5048961;28;20436;-65
2022/08/28 09:45:19;;;;;;;12.90;8.53;;;;;;;24.26;65.96;100350.91;5058628;28;20424;-66
2022/08/28 09:47:55;;;;;;;15.60;10.07;;;;;;;24.36;66.99;100352.09;5069066;28;20413;-64
2022/08/28 09:50:36;;;;;;;10.93;7.70;;;;;;;24.31;66.48;100355.41;5069078;28;20420;-65
2022/08/28 09:53:13;;;;;;;13.53;7.80;;;;;;;24.31;66.59;100343.88;5051056;28;20461;-65
2022/08/28 09:55:58;;;;;;;12.53;7.87;;;;;;;24.25;65.90;100349.28;5069016;28;20519;-65
2022/08/28 09:58:31;;;;;;;13.33;8.33;;;;;;;24.43;66.16;100352.09;5066336;28;20421;-66
2022/08/28 10:01:11;;;;;;;15.77;9.17;;;;;;;24.50;65.94;100352.03;5056316;28;20433;-66
2022/08/28 10:04:26;;;;;;;14.30;8.53;;;;;;;24.45;65.88;100356.19;5067207;28;20421;-66
2022/08/28 10:07:16;;;;;;;13.93;8.33;;;;;;;24.44;65.50;100348.75;5027152;28;20436;-66
2022/08/28 10:09:59;;;;;;;11.27;7.70;;;;;;;24.39;65.25;100352.06;5048784;28;20430;-66
2022/08/28 10:12:36;;;;;;;10.87;7.60;;;;;;;24.38;65.43;100349.63;5059242;28;20491;-66
2022/08/28 10:15:02;;;;;;;16.33;7.83;;;;;;;24.36;64.82;100346.31;5069393;28;20445;-66
2022/08/28 10:17:35;;;;;;;11.13;8.43;;;;;;;24.32;64.71;100354.16;5067853;28;20792;-65
2022/08/28 10:20:00;;;;;;;12.17;7.17;;;;;;;24.36;64.36;100352.09;5068867;28;20198;-65
2022/08/28 10:22:47;;;;;;;11.70;8.60;;;;;;;24.32;64.69;100349.22;5069619;28;20439;-64
2022/08/28 10:25:24;;;;;;;14.70;8.80;;;;;;;24.37;64.35;100345.91;5069642;28;20170;-65
2022/08/28 10:28:02;;;;;;;20.93;8.70;;;;;;;24.54;64.84;100353.66;5068817;28;20424;-64
2022/08/28 10:30:27;;;;;;;14.80;8.17;;;;;;;24.37;64.66;100340.13;5050100;28;20417;-64
2022/08/28 10:32:58;;;;;;;12.63;8.87;;;;;;;24.40;65.12;100344.25;5068406;28;20459;-64
2022/08/28 10:35:39;;;;;;;13.00;7.70;;;;;;;24.43;64.60;100349.19;5058148;28;20213;-65
2022/08/28 10:38:20;;;;;;;10.53;7.83;;;;;;;24.45;64.81;100338.88;5050871;28;20985;-65
2022/08/28 10:41:05;;;;;;;17.63;8.10;;;;;;;24.56;64.85;100342.50;5067092;28;20923;-66
2022/08/28 10:43:45;;;;;;;13.60;8.63;;;;;;;24.54;64.92;100347.06;5071660;28;20421;-65
2022/08/28 10:46:13;;;;;;;11.30;8.30;;;;;;;24.59;64.75;100343.78;5056141;28;20415;-67
2022/08/28 10:48:42;;;;;;;11.93;8.27;;;;;;;24.61;64.25;100347.88;5071507;28;20892;-66
2022/08/28 10:51:15;;;;;;;14.63;7.57;;;;;;;24.63;64.33;100344.56;5068835;28;21007;-66
2022/08/28 10:54:05;;;;;;;12.30;7.27;;;;;;;24.55;63.70;100340.88;5059378;28;20446;-66
2022/08/28 10:56:43;;;;;;;14.90;9.20;;;;;;;24.64;64.04;100338.34;5040652;28;20413;-66
2022/08/28 10:59:08;;;;;;;10.27;7.70;;;;;;;24.68;63.76;100336.28;5072852;28;20413;-66
2022/08/28 11:01:35;;;;;;;12.27;8.20;;;;;;;24.78;63.78;100334.59;5072797;28;20417;-66
2022/08/28 11:04:04;;;;;;;12.30;8.57;;;;;;;24.83;63.80;100342.81;5038162;28;20247;-65
2022/08/28 11:06:38;;;;;;;11.67;8.00;;;;;;;24.85;63.69;100344.03;5071719;28;20519;-66
2022/08/28 11:09:23;;;;;;;13.00;8.30;;;;;;;24.84;62.94;100341.56;5071213;28;20408;-65
2022/08/28 11:11:51;;;;;;;10.43;7.87;;;;;;;24.82;62.89;100339.06;5052213;28;20552;-65
2022/08/28 11:14:30;;;;;;;12.20;7.93;;;;;;;24.81;63.04;100340.34;5054877;28;20483;-65
2022/08/28 11:17:00;;;;;;;9.70;7.17;;;;;;;24.89;62.57;100338.22;5071573;28;20512;-65
2022/08/28 11:19:53;;;;;;;9.90;7.20;;;;;;;24.75;62.27;100347.81;5071592;28;20773;-65
2022/08/28 11:22:37;;;;;;;12.10;8.10;;;;;;;24.80;63.44;100341.59;5070717;28;20417;-64
2022/08/28 11:25:23;;;;;;;11.87;8.20;;;;;;;24.89;61.95;100336.13;5071762;28;20409;-66
2022/08/28 11:28:23;;;;;;;10.80;7.50;;;;;;;25.03;62.82;100335.22;5069907;28;20433;-64
2022/08/28 11:30:57;;;;;;;9.80;7.20;;;;;;;25.04;61.95;100331.88;5060599;28;21337;-65
2022/08/28 11:33:37;;;;;;;14.33;7.43;;;;;;;25.06;61.82;100334.34;5065233;28;20966;-66
2022/08/28 11:36:08;;;;;;;9.00;6.17;;;;;;;25.05;61.79;100332.72;5072282;28;20460;-65
2022/08/28 11:38:39;;;;;;;12.33;6.80;;;;;;;25.10;61.73;100329.38;5071030;28;20911;-65